Cauthornville, Virginia
Current Conditions -  °F | °C
As of 5:35 AM on Friday 21 Nov 2014 (Local Time) from KXSA Reporting Station
Clear Clear  
Wind Chill: 27°   Ceiling: Unl
Heat Index: 27°   Visibility: 10mi
Dew Point: 16°   Wind: 0mph
Humidity: 64%   Direction: NA
Pressure: 30.29"   Gusts: NA
Location:  37.8769°N, 77.0499°W
Report Text: KXSA 211035Z AUTO 00000KT 10SM CLR M03/M09 A3029 RMK AO2 T10301089
Loading
Personal Weather Stations






























Interactive Weather Map New forecast layout! Learn more

10-Day Weather Forecast

Advertisements
Track Severe Weather on mobile